sensor_id;sensor_type;location;lat;lon;timestamp;pressure;altitude;pressure_sealevel;temperature;humidity
4149;BME280;2088;51.032;7.082;2022-08-20T00:01:05;48102.50;;;-142.28;92.17
4149;BME280;2088;51.032;7.082;2022-08-20T00:03:34;48104.44;;;-142.28;92.95
4149;BME280;2088;51.032;7.082;2022-08-20T00:06:04;48123.78;;;-142.28;92.45
4149;BME280;2088;51.032;7.082;2022-08-20T00:08:31;48135.41;;;-142.28;93.07
4149;BME280;2088;51.032;7.082;2022-08-20T00:10:59;48123.78;;;-142.28;92.05
4149;BME280;2088;51.032;7.082;2022-08-20T00:13:29;48129.59;;;-142.28;92.23
4149;BME280;2088;51.032;7.082;2022-08-20T00:15:56;48116.06;;;-142.28;92.08
4149;BME280;2088;51.032;7.082;2022-08-20T00:18:24;48119.91;;;-142.28;92.84
4149;BME280;2088;51.032;7.082;2022-08-20T00:20:52;48117.97;;;-142.28;92.79
4149;BME280;2088;51.032;7.082;2022-08-20T00:23:21;48143.13;;;-142.28;92.93
4149;BME280;2088;51.032;7.082;2022-08-20T00:25:48;48129.59;;;-142.28;93.51
4149;BME280;2088;51.032;7.082;2022-08-20T00:28:15;48110.25;;;-142.28;93.35
4149;BME280;2088;51.032;7.082;2022-08-20T00:30:43;48119.91;;;-142.28;93.89
4149;BME280;2088;51.032;7.082;2022-08-20T00:33:12;48114.13;;;-142.28;94.48
4149;BME280;2088;51.032;7.082;2022-08-20T00:35:41;48114.13;;;-142.28;94.55
4149;BME280;2088;51.032;7.082;2022-08-20T00:38:08;48121.84;;;-142.28;94.67
4149;BME280;2088;51.032;7.082;2022-08-20T00:40:37;48129.59;;;-142.28;94.56
4149;BME280;2088;51.032;7.082;2022-08-20T00:43:10;48141.22;;;-142.28;95.16
4149;BME280;2088;51.032;7.082;2022-08-20T00:45:48;48145.06;;;-142.28;95.43
4149;BME280;2088;51.032;7.082;2022-08-20T00:48:19;48143.13;;;-142.28;97.48
4149;BME280;2088;51.032;7.082;2022-08-20T00:50:46;48148.94;;;-142.28;99.21
4149;BME280;2088;51.032;7.082;2022-08-20T00:53:13;48156.69;;;-142.28;100.00
4149;BME280;2088;51.032;7.082;2022-08-20T00:55:41;48152.81;;;-142.28;100.00
4149;BME280;2088;51.032;7.082;2022-08-20T00:58:08;48156.69;;;-142.28;100.00
4149;BME280;2088;51.032;7.082;2022-08-20T01:00:41;48164.44;;;-142.28;100.00
4149;BME280;2088;51.032;7.082;2022-08-20T01:03:11;48176.03;;;-142.28;100.00
4149;BME280;2088;51.032;7.082;2022-08-20T01:05:40;48158.63;;;-142.28;100.00
4149;BME280;2088;51.032;7.082;2022-08-20T01:08:09;48174.09;;;-142.28;100.00
4149;BME280;2088;51.032;7.082;2022-08-20T01:10:38;48177.97;;;-142.28;100.00
4149;BME280;2088;51.032;7.082;2022-08-20T01:13:08;48177.97;;;-142.28;100.00
4149;BME280;2088;51.032;7.082;2022-08-20T01:15:38;48152.81;;;-142.28;100.00
4149;BME280;2088;51.032;7.082;2022-08-20T01:18:09;48179.91;;;-142.28;100.00
4149;BME280;2088;51.032;7.082;2022-08-20T01:20:40;48174.09;;;-142.28;100.00
4149;BME280;2088;51.032;7.082;2022-08-20T01:23:14;48179.91;;;-142.28;100.00
4149;BME280;2088;51.032;7.082;2022-08-20T01:25:59;48193.47;;;-142.28;100.00
4149;BME280;2088;51.032;7.082;2022-08-20T01:28:32;48210.88;;;-142.28;100.00
4149;BME280;2088;51.032;7.082;2022-08-20T01:30:59;48199.25;;;-142.28;100.00
4149;BME280;2088;51.032;7.082;2022-08-20T01:33:26;48176.03;;;-142.28;100.00
4149;BME280;2088;51.032;7.082;2022-08-20T01:35:53;48218.63;;;-142.28;100.00
4149;BME280;2088;51.032;7.082;2022-08-20T01:38:19;48197.31;;;-142.28;100.00
4149;BME280;2088;51.032;7.082;2022-08-20T01:40:55;48212.81;;;-142.28;100.00
4149;BME280;2088;51.032;7.082;2022-08-20T01:43:25;48207.00;;;-142.28;100.00
4149;BME280;2088;51.032;7.082;2022-08-20T01:45:52;48222.47;;;-142.28;100.00
4149;BME280;2088;51.032;7.082;2022-08-20T01:48:19;48207.00;;;-142.28;100.00
4149;BME280;2088;51.032;7.082;2022-08-20T01:50:52;48239.91;;;-142.28;100.00
4149;BME280;2088;51.032;7.082;2022-08-20T01:53:27;48210.88;;;-142.28;100.00
4149;BME280;2088;51.032;7.082;2022-08-20T01:55:57;48257.31;;;-142.28;100.00
4149;BME280;2088;51.032;7.082;2022-08-20T01:58:26;48247.66;;;-142.28;100.00
4149;BME280;2088;51.032;7.082;2022-08-20T02:00:54;48245.72;;;-142.28;100.00
4149;BME280;2088;51.032;7.082;2022-08-20T02:03:20;48237.97;;;-142.28;100.00
4149;BME280;2088;51.032;7.082;2022-08-20T02:05:47;48245.72;;;-142.28;100.00
4149;BME280;2088;51.032;7.082;2022-08-20T02:08:13;48261.19;;;-142.28;100.00
4149;BME280;2088;51.032;7.082;2022-08-20T02:10:40;48259.25;;;-142.28;100.00
4149;BME280;2088;51.032;7.082;2022-08-20T02:13:06;48257.31;;;-142.28;100.00
4149;BME280;2088;51.032;7.082;2022-08-20T02:15:35;48257.31;;;-142.28;100.00
4149;BME280;2088;51.032;7.082;2022-08-20T02:18:04;48257.31;;;-142.28;100.00
4149;BME280;2088;51.032;7.082;2022-08-20T02:20:31;48253.44;;;-142.28;100.00
4149;BME280;2088;51.032;7.082;2022-08-20T02:22:58;48243.78;;;-142.28;100.00
4149;BME280;2088;51.032;7.082;2022-08-20T02:25:28;48259.25;;;-142.28;100.00
4149;BME280;2088;51.032;7.082;2022-08-20T02:27:57;48259.25;;;-142.28;100.00
4149;BME280;2088;51.032;7.082;2022-08-20T02:30:28;48272.81;;;-142.28;100.00
4149;BME280;2088;51.032;7.082;2022-08-20T02:32:59;48245.72;;;-142.28;100.00
4149;BME280;2088;51.032;7.082;2022-08-20T02:35:26;48226.34;;;-142.28;100.00
4149;BME280;2088;51.032;7.082;2022-08-20T02:37:53;48272.81;;;-142.28;100.00
4149;BME280;2088;51.032;7.082;2022-08-20T02:40:23;48278.59;;;-142.28;100.00
4149;BME280;2088;51.032;7.082;2022-08-20T02:42:50;48263.13;;;-142.28;100.00
4149;BME280;2088;51.032;7.082;2022-08-20T02:45:17;48268.94;;;-142.28;100.00
4149;BME280;2088;51.032;7.082;2022-08-20T02:47:45;48284.41;;;-142.28;100.00
4149;BME280;2088;51.032;7.082;2022-08-20T02:50:16;48311.50;;;-142.28;100.00
4149;BME280;2088;51.032;7.082;2022-08-20T02:52:44;48278.59;;;-142.28;100.00
4149;BME280;2088;51.032;7.082;2022-08-20T02:55:11;48303.78;;;-142.28;100.00
4149;BME280;2088;51.032;7.082;2022-08-20T02:57:38;48319.25;;;-142.28;100.00
4149;BME280;2088;51.032;7.082;2022-08-20T03:00:06;48311.50;;;-142.28;100.00
4149;BME280;2088;51.032;7.082;2022-08-20T03:02:33;48272.81;;;-142.28;100.00
4149;BME280;2088;51.032;7.082;2022-08-20T03:05:00;48325.06;;;-142.28;100.00
4149;BME280;2088;51.032;7.082;2022-08-20T03:07:28;48319.25;;;-142.28;100.00
4149;BME280;2088;51.032;7.082;2022-08-20T03:09:54;48307.63;;;-142.28;100.00
4149;BME280;2088;51.032;7.082;2022-08-20T03:12:20;48305.69;;;-142.28;100.00
4149;BME280;2088;51.032;7.082;2022-08-20T03:14:47;48325.06;;;-142.28;100.00
4149;BME280;2088;51.032;7.082;2022-08-20T03:17:13;48315.38;;;-142.28;100.00
4149;BME280;2088;51.032;7.082;2022-08-20T03:19:40;48309.56;;;-142.28;100.00
4149;BME280;2088;51.032;7.082;2022-08-20T03:22:07;48303.78;;;-142.28;100.00
4149;BME280;2088;51.032;7.082;2022-08-20T03:24:34;48272.81;;;-142.28;100.00
4149;BME280;2088;51.032;7.082;2022-08-20T03:27:01;48297.97;;;-142.28;100.00
4149;BME280;2088;51.032;7.082;2022-08-20T03:29:27;48299.91;;;-142.28;100.00
4149;BME280;2088;51.032;7.082;2022-08-20T03:31:54;48303.78;;;-142.28;100.00
4149;BME280;2088;51.032;7.082;2022-08-20T03:34:20;48323.13;;;-142.28;100.00
4149;BME280;2088;51.032;7.082;2022-08-20T03:36:47;48282.47;;;-142.28;100.00
4149;BME280;2088;51.032;7.082;2022-08-20T03:39:14;48305.69;;;-142.28;100.00
4149;BME280;2088;51.032;7.082;2022-08-20T03:41:42;48313.44;;;-142.28;100.00
4149;BME280;2088;51.032;7.082;2022-08-20T03:44:08;48342.47;;;-142.28;100.00
4149;BME280;2088;51.032;7.082;2022-08-20T03:46:35;48319.25;;;-142.28;100.00
4149;BME280;2088;51.032;7.082;2022-08-20T03:49:03;48321.19;;;-142.28;100.00
4149;BME280;2088;51.032;7.082;2022-08-20T03:51:31;48350.22;;;-142.28;100.00
4149;BME280;2088;51.032;7.082;2022-08-20T03:53:57;48334.72;;;-142.28;100.00
4149;BME280;2088;51.032;7.082;2022-08-20T03:56:25;48363.75;;;-142.28;100.00
4149;BME280;2088;51.032;7.082;2022-08-20T03:58:53;48332.78;;;-142.28;100.00
4149;BME280;2088;51.032;7.082;2022-08-20T04:01:19;48311.50;;;-142.28;100.00
4149;BME280;2088;51.032;7.082;2022-08-20T04:03:46;48348.28;;;-142.28;100.00
4149;BME280;2088;51.032;7.082;2022-08-20T04:06:12;48352.16;;;-142.28;100.00
4149;BME280;2088;51.032;7.082;2022-08-20T04:08:39;48352.16;;;-142.28;100.00
4149;BME280;2088;51.032;7.082;2022-08-20T04:11:06;48363.75;;;-142.28;100.00
4149;BME280;2088;51.032;7.082;2022-08-20T04:13:33;48354.09;;;-142.28;100.00
4149;BME280;2088;51.032;7.082;2022-08-20T04:16:02;48361.81;;;-142.28;100.00
4149;BME280;2088;51.032;7.082;2022-08-20T04:18:33;48340.53;;;-142.28;100.00
4149;BME280;2088;51.032;7.082;2022-08-20T04:21:02;48381.19;;;-142.28;100.00
4149;BME280;2088;51.032;7.082;2022-08-20T04:23:29;48371.50;;;-142.28;100.00
4149;BME280;2088;51.032;7.082;2022-08-20T04:25:55;48369.56;;;-142.28;100.00
4149;BME280;2088;51.032;7.082;2022-08-20T04:28:24;48357.97;;;-142.28;100.00
4149;BME280;2088;51.032;7.082;2022-08-20T04:30:53;48365.69;;;-142.28;100.00
4149;BME280;2088;51.032;7.082;2022-08-20T04:33:22;48404.41;;;-142.28;100.00
4149;BME280;2088;51.032;7.082;2022-08-20T04:35:50;48365.69;;;-142.28;100.00
4149;BME280;2088;51.032;7.082;2022-08-20T04:38:18;48363.75;;;-142.28;100.00
4149;BME280;2088;51.032;7.082;2022-08-20T04:40:45;48377.31;;;-142.28;100.00
4149;BME280;2088;51.032;7.082;2022-08-20T04:43:24;48377.31;;;-142.28;100.00
4149;BME280;2088;51.032;7.082;2022-08-20T04:45:52;48398.59;;;-142.28;100.00
4149;BME280;2088;51.032;7.082;2022-08-20T04:48:20;48377.31;;;-142.28;100.00
4149;BME280;2088;51.032;7.082;2022-08-20T04:50:50;48375.38;;;-142.28;100.00
4149;BME280;2088;51.032;7.082;2022-08-20T04:53:20;48361.81;;;-142.28;100.00
4149;BME280;2088;51.032;7.082;2022-08-20T04:55:48;48342.47;;;-142.28;100.00
4149;BME280;2088;51.032;7.082;2022-08-20T04:58:17;48346.34;;;-142.28;100.00
4149;BME280;2088;51.032;7.082;2022-08-20T05:00:45;48365.69;;;-142.28;100.00
4149;BME280;2088;51.032;7.082;2022-08-20T05:03:12;48361.81;;;-142.28;100.00
4149;BME280;2088;51.032;7.082;2022-08-20T05:05:38;48361.81;;;-142.28;100.00
4149;BME280;2088;51.032;7.082;2022-08-20T05:08:06;48354.09;;;-142.28;100.00
4149;BME280;2088;51.032;7.082;2022-08-20T05:10:33;48350.22;;;-142.28;100.00
4149;BME280;2088;51.032;7.082;2022-08-20T05:13:01;48381.19;;;-142.28;100.00
4149;BME280;2088;51.032;7.082;2022-08-20T05:15:27;48352.16;;;-142.28;100.00
4149;BME280;2088;51.032;7.082;2022-08-20T05:17:55;48388.91;;;-142.28;100.00
4149;BME280;2088;51.032;7.082;2022-08-20T05:20:25;48390.84;;;-142.28;100.00
4149;BME280;2088;51.032;7.082;2022-08-20T05:22:52;48381.19;;;-142.28;100.00
4149;BME280;2088;51.032;7.082;2022-08-20T05:25:22;48388.91;;;-142.28;100.00
4149;BME280;2088;51.032;7.082;2022-08-20T05:27:48;48419.88;;;-142.28;100.00
4149;BME280;2088;51.032;7.082;2022-08-20T05:30:15;48423.75;;;-142.28;100.00
4149;BME280;2088;51.032;7.082;2022-08-20T05:32:41;48454.72;;;-142.28;100.00
4149;BME280;2088;51.032;7.082;2022-08-20T05:35:09;48446.97;;;-142.28;100.00
4149;BME280;2088;51.032;7.082;2022-08-20T05:37:37;48466.34;;;-142.28;100.00
4149;BME280;2088;51.032;7.082;2022-08-20T05:40:10;48487.63;;;-142.28;100.00
4149;BME280;2088;51.032;7.082;2022-08-20T05:42:39;48501.16;;;-142.28;100.00
4149;BME280;2088;51.032;7.082;2022-08-20T05:45:07;48599.88;;;-142.28;100.00
4149;BME280;2088;51.032;7.082;2022-08-20T05:47:38;48636.66;;;-142.28;100.00
4149;BME280;2088;51.032;7.082;2022-08-20T05:50:06;48657.94;;;-142.28;100.00
4149;BME280;2088;51.032;7.082;2022-08-20T05:52:33;48729.56;;;-142.28;100.00
4149;BME280;2088;51.032;7.082;2022-08-20T05:55:00;48781.81;;;-142.28;100.00
4149;BME280;2088;51.032;7.082;2022-08-20T05:57:26;48822.47;;;-142.28;100.00
4149;BME280;2088;51.032;7.082;2022-08-20T05:59:54;48836.03;;;-142.28;100.00
4149;BME280;2088;51.032;7.082;2022-08-20T06:02:21;48882.47;;;-142.28;100.00
4149;BME280;2088;51.032;7.082;2022-08-20T06:05:05;48909.56;;;-142.28;100.00
4149;BME280;2088;51.032;7.082;2022-08-20T06:07:31;48930.88;;;-142.28;100.00
4149;BME280;2088;51.032;7.082;2022-08-20T06:09:59;48936.66;;;-142.28;100.00
4149;BME280;2088;51.032;7.082;2022-08-20T06:12:25;48952.16;;;-142.28;100.00
4149;BME280;2088;51.032;7.082;2022-08-20T06:14:52;48896.03;;;-142.28;100.00
4149;BME280;2088;51.032;7.082;2022-08-20T06:17:20;48867.00;;;-142.28;100.00
4149;BME280;2088;51.032;7.082;2022-08-20T06:19:47;48816.66;;;-142.28;100.00
4149;BME280;2088;51.032;7.082;2022-08-20T06:22:14;48824.41;;;-142.28;100.00
4149;BME280;2088;51.032;7.082;2022-08-20T06:24:41;48820.53;;;-142.28;100.00
4149;BME280;2088;51.032;7.082;2022-08-20T06:27:12;48837.94;;;-142.28;100.00
4149;BME280;2088;51.032;7.082;2022-08-20T06:29:39;48851.50;;;-142.28;100.00
4149;BME280;2088;51.032;7.082;2022-08-20T06:32:06;48808.91;;;-142.28;100.00
4149;BME280;2088;51.032;7.082;2022-08-20T06:34:33;48845.69;;;-142.28;100.00
4149;BME280;2088;51.032;7.082;2022-08-20T06:37:00;48876.66;;;-142.28;100.00
4149;BME280;2088;51.032;7.082;2022-08-20T06:39:27;48886.34;;;-142.28;100.00
4149;BME280;2088;51.032;7.082;2022-08-20T06:41:55;48909.56;;;-142.28;100.00
4149;BME280;2088;51.032;7.082;2022-08-20T06:44:23;48903.75;;;-142.28;100.00
4149;BME280;2088;51.032;7.082;2022-08-20T06:46:50;48911.50;;;-142.28;100.00
4149;BME280;2088;51.032;7.082;2022-08-20T06:49:16;48878.59;;;-142.28;100.00
4149;BME280;2088;51.032;7.082;2022-08-20T06:51:44;48913.44;;;-142.28;100.00
4149;BME280;2088;51.032;7.082;2022-08-20T06:54:10;48919.25;;;-142.28;100.00
4149;BME280;2088;51.032;7.082;2022-08-20T06:56:37;48915.38;;;-142.28;100.00
4149;BME280;2088;51.032;7.082;2022-08-20T06:59:04;48927.00;;;-142.28;100.00
4149;BME280;2088;51.032;7.082;2022-08-20T07:01:30;48938.59;;;-142.28;100.00
4149;BME280;2088;51.032;7.082;2022-08-20T07:03:57;48913.44;;;-142.28;100.00
4149;BME280;2088;51.032;7.082;2022-08-20T07:06:24;48897.97;;;-142.28;100.00
4149;BME280;2088;51.032;7.082;2022-08-20T07:08:53;48923.13;;;-142.28;100.00
4149;BME280;2088;51.032;7.082;2022-08-20T07:11:20;48971.50;;;-142.28;100.00
4149;BME280;2088;51.032;7.082;2022-08-20T07:13:46;48903.75;;;-142.28;100.00
4149;BME280;2088;51.032;7.082;2022-08-20T07:16:13;48874.72;;;-142.28;100.00
4149;BME280;2088;51.032;7.082;2022-08-20T07:18:40;48868.91;;;-142.28;100.00
4149;BME280;2088;51.032;7.082;2022-08-20T07:21:06;48868.91;;;-142.28;100.00
4149;BME280;2088;51.032;7.082;2022-08-20T07:23:32;48876.66;;;-142.28;100.00
4149;BME280;2088;51.032;7.082;2022-08-20T07:26:01;48903.75;;;-142.28;100.00
4149;BME280;2088;51.032;7.082;2022-08-20T07:28:28;48897.97;;;-142.28;100.00
4149;BME280;2088;51.032;7.082;2022-08-20T07:30:56;48894.09;;;-142.28;100.00
4149;BME280;2088;51.032;7.082;2022-08-20T07:33:41;48868.91;;;-142.28;100.00
4149;BME280;2088;51.032;7.082;2022-08-20T07:36:08;48884.41;;;-142.28;100.00
4149;BME280;2088;51.032;7.082;2022-08-20T07:38:36;48872.78;;;-142.28;100.00
4149;BME280;2088;51.032;7.082;2022-08-20T07:41:06;48870.84;;;-142.28;100.00
4149;BME280;2088;51.032;7.082;2022-08-20T07:43:33;48818.59;;;-142.28;100.00
4149;BME280;2088;51.032;7.082;2022-08-20T07:46:01;48797.31;;;-142.28;100.00
4149;BME280;2088;51.032;7.082;2022-08-20T07:48:32;48803.13;;;-142.28;100.00
4149;BME280;2088;51.032;7.082;2022-08-20T07:51:00;48791.50;;;-142.28;100.00
4149;BME280;2088;51.032;7.082;2022-08-20T07:53:27;48764.41;;;-142.28;100.00
4149;BME280;2088;51.032;7.082;2022-08-20T07:55:54;48768.28;;;-142.28;100.00
4149;BME280;2088;51.032;7.082;2022-08-20T07:58:22;48779.88;;;-142.28;100.00
4149;BME280;2088;51.032;7.082;2022-08-20T08:00:49;48776.00;;;-142.28;100.00
4149;BME280;2088;51.032;7.082;2022-08-20T08:03:16;48748.91;;;-142.28;100.00
4149;BME280;2088;51.032;7.082;2022-08-20T08:05:45;48737.31;;;-142.28;100.00
4149;BME280;2088;51.032;7.082;2022-08-20T08:08:16;48704.41;;;-142.28;100.00
4149;BME280;2088;51.032;7.082;2022-08-20T08:10:45;48671.50;;;-142.28;100.00
4149;BME280;2088;51.032;7.082;2022-08-20T08:13:13;48657.94;;;-142.28;100.00
4149;BME280;2088;51.032;7.082;2022-08-20T08:15:44;48650.19;;;-142.28;100.00
4149;BME280;2088;51.032;7.082;2022-08-20T08:18:15;48686.97;;;-142.28;100.00
4149;BME280;2088;51.032;7.082;2022-08-20T08:20:47;48642.47;;;-142.28;100.00
4149;BME280;2088;51.032;7.082;2022-08-20T08:23:17;48671.50;;;-142.28;100.00
4149;BME280;2088;51.032;7.082;2022-08-20T08:25:44;48675.38;;;-142.28;100.00
4149;BME280;2088;51.032;7.082;2022-08-20T08:28:11;48632.78;;;-142.28;100.00
4149;BME280;2088;51.032;7.082;2022-08-20T08:30:39;48656.00;;;-142.28;100.00
4149;BME280;2088;51.032;7.082;2022-08-20T08:33:17;48638.59;;;-142.28;100.00
4149;BME280;2088;51.032;7.082;2022-08-20T08:35:58;48642.47;;;-142.28;100.00
4149;BME280;2088;51.032;7.082;2022-08-20T08:38:28;48630.84;;;-142.28;100.00
4149;BME280;2088;51.032;7.082;2022-08-20T08:40:57;48609.56;;;-142.28;100.00
4149;BME280;2088;51.032;7.082;2022-08-20T08:43:27;48574.72;;;-142.28;100.00
4149;BME280;2088;51.032;7.082;2022-08-20T08:45:58;48580.53;;;-142.28;100.00
4149;BME280;2088;51.032;7.082;2022-08-20T08:48:40;48557.31;;;-142.28;100.00
4149;BME280;2088;51.032;7.082;2022-08-20T08:51:10;48590.19;;;-142.28;100.00
4149;BME280;2088;51.032;7.082;2022-08-20T08:53:39;48586.34;;;-142.28;100.00
4149;BME280;2088;51.032;7.082;2022-08-20T08:56:08;48576.66;;;-142.28;100.00
4149;BME280;2088;51.032;7.082;2022-08-20T08:58:35;48590.19;;;-142.28;100.00
4149;BME280;2088;51.032;7.082;2022-08-20T09:01:07;48578.59;;;-142.28;100.00
4149;BME280;2088;51.032;7.082;2022-08-20T09:03:37;48566.97;;;-142.28;100.00
4149;BME280;2088;51.032;7.082;2022-08-20T09:06:05;48584.41;;;-142.28;100.00
4149;BME280;2088;51.032;7.082;2022-08-20T09:08:43;48530.22;;;-142.28;98.70
4149;BME280;2088;51.032;7.082;2022-08-20T09:11:13;48537.94;;;-142.28;99.71
4149;BME280;2088;51.032;7.082;2022-08-20T09:13:40;48561.16;;;-142.28;100.00
4149;BME280;2088;51.032;7.082;2022-08-20T09:16:07;48518.59;;;-142.28;100.00
4149;BME280;2088;51.032;7.082;2022-08-20T09:18:34;48555.38;;;-142.28;100.00
4149;BME280;2088;51.032;7.082;2022-08-20T09:21:01;48528.28;;;-142.28;100.00
4149;BME280;2088;51.032;7.082;2022-08-20T09:23:28;48553.44;;;-142.28;100.00
4149;BME280;2088;51.032;7.082;2022-08-20T09:25:55;48559.25;;;-142.28;100.00
4149;BME280;2088;51.032;7.082;2022-08-20T09:28:22;48547.63;;;-142.28;99.76
4149;BME280;2088;51.032;7.082;2022-08-20T09:30:48;48532.13;;;-142.28;100.00
4149;BME280;2088;51.032;7.082;2022-08-20T09:33:15;48534.06;;;-142.28;99.90
4149;BME280;2088;51.032;7.082;2022-08-20T09:35:41;48530.22;;;-142.28;100.00
4149;BME280;2088;51.032;7.082;2022-08-20T09:38:11;48547.63;;;-142.28;100.00
4149;BME280;2088;51.032;7.082;2022-08-20T09:40:38;48549.56;;;-142.28;100.00
4149;BME280;2088;51.032;7.082;2022-08-20T09:43:05;48539.88;;;-142.28;100.00
4149;BME280;2088;51.032;7.082;2022-08-20T09:45:31;48537.94;;;-142.28;100.00
4149;BME280;2088;51.032;7.082;2022-08-20T09:47:58;48528.28;;;-142.28;99.06
4149;BME280;2088;51.032;7.082;2022-08-20T09:50:27;48524.41;;;-142.28;97.39
4149;BME280;2088;51.032;7.082;2022-08-20T09:52:54;48508.91;;;-142.28;97.90
4149;BME280;2088;51.032;7.082;2022-08-20T09:55:29;48508.91;;;-142.28;98.38
4149;BME280;2088;51.032;7.082;2022-08-20T09:57:58;48491.50;;;-142.28;97.88
4149;BME280;2088;51.032;7.082;2022-08-20T10:00:26;48485.69;;;-142.28;97.85
4149;BME280;2088;51.032;7.082;2022-08-20T10:02:52;48528.28;;;-142.28;97.57
4149;BME280;2088;51.032;7.082;2022-08-20T10:05:19;48491.50;;;-142.28;97.38
4149;BME280;2088;51.032;7.082;2022-08-20T10:07:45;48497.31;;;-142.28;98.41
4149;BME280;2088;51.032;7.082;2022-08-20T10:10:13;48487.63;;;-142.28;96.64
4149;BME280;2088;51.032;7.082;2022-08-20T10:12:41;48481.81;;;-142.28;96.21
4149;BME280;2088;51.032;7.082;2022-08-20T10:15:09;48497.31;;;-142.28;95.93
4149;BME280;2088;51.032;7.082;2022-08-20T10:17:37;48466.34;;;-142.28;95.16
4149;BME280;2088;51.032;7.082;2022-08-20T10:20:05;48458.59;;;-142.28;95.48
4149;BME280;2088;51.032;7.082;2022-08-20T10:22:33;48464.41;;;-142.28;95.05
4149;BME280;2088;51.032;7.082;2022-08-20T10:25:00;48476.00;;;-142.28;93.90
4149;BME280;2088;51.032;7.082;2022-08-20T10:27:26;48445.03;;;-142.28;92.46
4149;BME280;2088;51.032;7.082;2022-08-20T10:29:54;48431.50;;;-142.28;93.43
4149;BME280;2088;51.032;7.082;2022-08-20T10:32:21;48454.72;;;-142.28;93.15
4149;BME280;2088;51.032;7.082;2022-08-20T10:34:47;48402.47;;;-142.28;92.11
4149;BME280;2088;51.032;7.082;2022-08-20T10:37:14;48423.75;;;-142.28;92.21
4149;BME280;2088;51.032;7.082;2022-08-20T10:39:42;48402.47;;;-142.28;90.83
4149;BME280;2088;51.032;7.082;2022-08-20T10:42:08;48385.06;;;-142.28;88.09
4149;BME280;2088;51.032;7.082;2022-08-20T10:44:35;48361.81;;;-142.28;87.65
4149;BME280;2088;51.032;7.082;2022-08-20T10:47:14;48357.97;;;-142.28;88.24
4149;BME280;2088;51.032;7.082;2022-08-20T10:49:41;48365.69;;;-142.28;86.93
4149;BME280;2088;51.032;7.082;2022-08-20T10:52:07;48330.88;;;-142.28;85.41
4149;BME280;2088;51.032;7.082;2022-08-20T10:54:34;48336.66;;;-142.28;86.95
4149;BME280;2088;51.032;7.082;2022-08-20T10:57:01;48327.00;;;-142.28;83.62
4149;BME280;2088;51.032;7.082;2022-08-20T10:59:28;48303.78;;;-142.28;84.26
4149;BME280;2088;51.032;7.082;2022-08-20T11:01:54;48294.09;;;-142.28;82.95
4149;BME280;2088;51.032;7.082;2022-08-20T11:04:22;48263.13;;;-142.28;82.44
4149;BME280;2088;51.032;7.082;2022-08-20T11:06:48;48237.97;;;-142.28;79.02
4149;BME280;2088;51.032;7.082;2022-08-20T11:09:15;48216.69;;;-142.28;77.88
4149;BME280;2088;51.032;7.082;2022-08-20T11:11:41;48253.44;;;-142.28;77.98
4149;BME280;2088;51.032;7.082;2022-08-20T11:14:08;48222.47;;;-142.28;77.61
4149;BME280;2088;51.032;7.082;2022-08-20T11:16:34;48214.75;;;-142.28;75.66
4149;BME280;2088;51.032;7.082;2022-08-20T11:19:01;48187.66;;;-142.28;75.11
4149;BME280;2088;51.032;7.082;2022-08-20T11:21:29;48226.34;;;-142.28;78.06
4149;BME280;2088;51.032;7.082;2022-08-20T11:23:55;48208.94;;;-142.28;76.35
4149;BME280;2088;51.032;7.082;2022-08-20T11:26:23;48176.03;;;-142.28;74.11
4149;BME280;2088;51.032;7.082;2022-08-20T11:28:50;48197.31;;;-142.28;72.38
4149;BME280;2088;51.032;7.082;2022-08-20T11:31:16;48156.69;;;-142.28;68.99
4149;BME280;2088;51.032;7.082;2022-08-20T11:33:43;48160.56;;;-142.28;68.64
4149;BME280;2088;51.032;7.082;2022-08-20T11:36:09;48164.44;;;-142.28;69.36
4149;BME280;2088;51.032;7.082;2022-08-20T11:38:37;48137.34;;;-142.28;67.03
4149;BME280;2088;51.032;7.082;2022-08-20T11:41:04;48143.13;;;-142.28;67.79
4149;BME280;2088;51.032;7.082;2022-08-20T11:43:30;48168.31;;;-142.28;73.11
4149;BME280;2088;51.032;7.082;2022-08-20T11:45:57;48145.06;;;-142.28;76.58
4149;BME280;2088;51.032;7.082;2022-08-20T11:48:23;48148.94;;;-142.28;77.62
4149;BME280;2088;51.032;7.082;2022-08-20T11:50:50;48181.84;;;-142.28;76.79
4149;BME280;2088;51.032;7.082;2022-08-20T11:53:17;48160.56;;;-142.28;77.34
4149;BME280;2088;51.032;7.082;2022-08-20T11:55:45;48177.97;;;-142.28;77.91
4149;BME280;2088;51.032;7.082;2022-08-20T11:58:12;48125.72;;;-142.28;72.19
4149;BME280;2088;51.032;7.082;2022-08-20T12:00:38;48094.75;;;-142.28;62.95
4149;BME280;2088;51.032;7.082;2022-08-20T12:03:06;48063.78;;;-142.28;60.43
4149;BME280;2088;51.032;7.082;2022-08-20T12:05:32;48102.50;;;-142.28;63.31
4149;BME280;2088;51.032;7.082;2022-08-20T12:08:00;48094.75;;;-142.28;65.37
4149;BME280;2088;51.032;7.082;2022-08-20T12:10:27;48108.31;;;-142.28;66.98
4149;BME280;2088;51.032;7.082;2022-08-20T12:12:55;48067.66;;;-142.28;59.69
4149;BME280;2088;51.032;7.082;2022-08-20T12:15:22;48071.53;;;-142.28;54.89
4149;BME280;2088;51.032;7.082;2022-08-20T12:17:49;48094.75;;;-142.28;59.12
4149;BME280;2088;51.032;7.082;2022-08-20T12:20:16;48083.16;;;-142.28;61.20
4149;BME280;2088;51.032;7.082;2022-08-20T12:22:42;48092.81;;;-142.28;64.31
4149;BME280;2088;51.032;7.082;2022-08-20T12:25:10;48079.28;;;-142.28;66.75
4149;BME280;2088;51.032;7.082;2022-08-20T12:27:37;48098.63;;;-142.28;68.74
4149;BME280;2088;51.032;7.082;2022-08-20T12:30:07;48102.50;;;-142.28;70.56
4149;BME280;2088;51.032;7.082;2022-08-20T12:32:34;48098.63;;;-142.28;68.70
4149;BME280;2088;51.032;7.082;2022-08-20T12:35:01;48090.88;;;-142.28;65.48
4149;BME280;2088;51.032;7.082;2022-08-20T12:37:29;48058.00;;;-142.28;60.98
4149;BME280;2088;51.032;7.082;2022-08-20T12:39:57;48034.78;;;-142.28;55.06
4149;BME280;2088;51.032;7.082;2022-08-20T12:42:25;48038.63;;;-142.28;51.47
4149;BME280;2088;51.032;7.082;2022-08-20T12:44:53;48021.22;;;-142.28;46.56
4149;BME280;2088;51.032;7.082;2022-08-20T12:47:23;48028.97;;;-142.28;43.48
4149;BME280;2088;51.032;7.082;2022-08-20T12:49:51;48013.47;;;-142.28;41.02
4149;BME280;2088;51.032;7.082;2022-08-20T12:52:20;48007.69;;;-142.28;39.06
4149;BME280;2088;51.032;7.082;2022-08-20T12:54:47;48040.56;;;-142.28;39.80
4149;BME280;2088;51.032;7.082;2022-08-20T12:57:14;48013.47;;;-142.28;40.79